Terminal Aerodrome Forecast
Issued by NWS

Home | Current Version | Previous Version | Text Only | Print | Product List | Glossary On
Versions: 1 2 3 4 5 6 7 8 9 10 11 12 13 14 15 16 17
000
FTAK31 PAJN 192339
TAFAPG
TAF
PAPG 192339Z 2000/2024 13005KT P6SM -SHRA SCT008 BKN015 OVC025
     FM200200 VRB03KT P6SM -SHRA FEW006 BKN025 OVC040
     FM201200 VRB03KT P6SM VCSH SCT025 BKN035 OVC040
      AMD LTD TO CLD VIS AND WIND 2006/2015=

USA.gov is the U.S. government's official web portal to all federal, state and local government web resources and services.